DLH1010 EDDM-KLAX
Flight info
| Callsign | DLH1010 |
|---|---|
| Flight time | N/A |
| Altitude | 34000 |
| Route | INPUD2N INPUD Y102 UPALA Z109 BAMAS L604 GASKA DCT MAPOX DCT BIGGE DCT LONAM DCT ERAKA/M080F360 DCT 59N015W 59N020W 59N030W 59N040W 59N050W DCT AVUTI/N0465F360 DCT KLIPS DCT GRAND/N0468F380 DCT 55N086W DCT KALLU DCT MOT DCT BOY/N0454F400 DCT MLF J107 BLD DCT HAKMN ANJLL4 |
| Aircraft | A343/H-SDE2E3FGHIJ4J5M1RWXY/LB1D1 |
Departure
| Time | N/A |
|---|---|
| Airport | Munich Airport (EDDM) |
Arrival
| Time | 2026-04-21 18:43 |
|---|---|
| Airport | Los Angeles International Airport (KLAX) |
| Time | Latitude | Longitude | Altitude | Speed | Heading |
|---|---|---|---|---|---|
| 2026-04-21 18:43 | 33.94547 | -118.41614 | 97 ft | 0 kts | 84° |
| 2026-04-21 18:54 | 33.94545 | -118.41632 | 99 ft | 4 kts | 84° |
| 2026-04-21 18:54 | 33.94542 | -118.41664 | 96 ft | 3 kts | 83° |
| 2026-04-21 18:55 | 33.94537 | -118.41691 | 95 ft | 4 kts | 49° |
| 2026-04-21 18:55 | 33.94517 | -118.41701 | 96 ft | 4 kts | 352° |
| 2026-04-21 18:55 | 33.94499 | -118.41697 | 97 ft | 1 kts | 352° |
| 2026-04-21 18:55 | 33.94496 | -118.41697 | 97 ft | 0 kts | 352° |
| 2026-04-21 18:59 | 33.94509 | -118.41699 | 100 ft | 4 kts | 353° |
| 2026-04-21 18:59 | 33.94550 | -118.41705 | 99 ft | 8 kts | 353° |
| 2026-04-21 18:59 | 33.94619 | -118.41700 | 100 ft | 12 kts | 23° |
| 2026-04-21 19:00 | 33.94671 | -118.41606 | 98 ft | 16 kts | 55° |
| 2026-04-21 19:00 | 33.94747 | -118.41513 | 101 ft | 17 kts | 65° |
| 2026-04-21 19:00 | 33.94777 | -118.41379 | 100 ft | 17 kts | 81° |
| 2026-04-21 19:00 | 33.94795 | -118.41240 | 99 ft | 16 kts | 80° |
| 2026-04-21 19:01 | 33.94812 | -118.41101 | 99 ft | 18 kts | 83° |
| 2026-04-21 19:01 | 33.94826 | -118.40960 | 101 ft | 16 kts | 83° |
| 2026-04-21 19:01 | 33.94839 | -118.40832 | 98 ft | 15 kts | 83° |
| 2026-04-21 19:01 | 33.94851 | -118.40714 | 102 ft | 14 kts | 83° |
| 2026-04-21 19:02 | 33.94863 | -118.40599 | 101 ft | 13 kts | 83° |
| 2026-04-21 19:02 | 33.94875 | -118.40490 | 101 ft | 14 kts | 83° |
| 2026-04-21 19:02 | 33.94887 | -118.40372 | 98 ft | 13 kts | 83° |
| 2026-04-21 19:02 | 33.94898 | -118.40269 | 101 ft | 12 kts | 83° |
| 2026-04-21 19:03 | 33.94907 | -118.40177 | 99 ft | 10 kts | 83° |
| 2026-04-21 19:03 | 33.94915 | -118.40095 | 98 ft | 9 kts | 83° |
| 2026-04-21 19:03 | 33.94923 | -118.40021 | 97 ft | 9 kts | 83° |
| 2026-04-21 19:03 | 33.94945 | -118.39953 | 100 ft | 5 kts | 41° |
| 2026-04-21 19:04 | 33.94950 | -118.39949 | 100 ft | 4 kts | 40° |
| 2026-04-21 19:04 | 33.94999 | -118.39932 | 99 ft | 9 kts | 354° |
| 2026-04-21 19:04 | 33.95028 | -118.39971 | 98 ft | 8 kts | 292° |
| 2026-04-21 19:04 | 33.95030 | -118.40063 | 98 ft | 15 kts | 265° |
| 2026-04-21 19:05 | 33.95001 | -118.40356 | 102 ft | 61 kts | 263° |
| 2026-04-21 19:05 | 33.94925 | -118.41063 | 101 ft | 108 kts | 263° |
| 2026-04-21 19:05 | 33.94818 | -118.42125 | 100 ft | 146 kts | 263° |
| 2026-04-21 19:05 | 33.94693 | -118.43428 | 373 ft | 157 kts | 264° |
| 2026-04-21 19:06 | 33.94596 | -118.44682 | 961 ft | 149 kts | 262° |
| 2026-04-21 19:06 | 33.94507 | -118.45988 | 1249 ft | 165 kts | 260° |
| 2026-04-21 19:06 | 33.94400 | -118.47445 | 1530 ft | 185 kts | 261° |
| 2026-04-21 19:06 | 33.94261 | -118.49083 | 1771 ft | 211 kts | 259° |
| 2026-04-21 19:07 | 33.94091 | -118.50946 | 2090 ft | 236 kts | 260° |
| 2026-04-21 19:07 | 33.93896 | -118.52995 | 2527 ft | 255 kts | 261° |
| 2026-04-21 19:07 | 33.93769 | -118.55130 | 3406 ft | 255 kts | 264° |
| 2026-04-21 19:07 | 33.93655 | -118.57241 | 4397 ft | 250 kts | 264° |
| 2026-04-21 19:08 | 33.93516 | -118.59296 | 5448 ft | 242 kts | 261° |
| 2026-04-21 19:08 | 33.93096 | -118.61214 | 6318 ft | 241 kts | 243° |
| 2026-04-21 19:08 | 33.92105 | -118.62830 | 7093 ft | 243 kts | 223° |
| 2026-04-21 19:08 | 33.90638 | -118.63872 | 7790 ft | 251 kts | 201° |
| 2026-04-21 19:09 | 33.88879 | -118.64156 | 8512 ft | 260 kts | 183° |